createdAt,value
2019-04-03T00:01:26.328Z,46.93
2019-04-03T00:03:56.375Z,50.33
2019-04-03T00:06:26.408Z,53.80
2019-04-03T00:08:56.478Z,46.40
2019-04-03T00:11:26.614Z,45.47
2019-04-03T00:13:56.688Z,42.77
2019-04-03T00:16:26.728Z,47.03
2019-04-03T00:18:56.904Z,47.90
2019-04-03T00:21:26.911Z,44.60
2019-04-03T00:23:57.147Z,45.97
2019-04-03T00:26:30.351Z,44.93
2019-04-03T00:28:59.522Z,43.90
2019-04-03T00:31:29.664Z,44.88
2019-04-03T00:33:59.804Z,43.10
2019-04-03T00:36:29.997Z,46.33
2019-04-03T00:39:00.140Z,41.25
2019-04-03T00:41:30.240Z,42.60
2019-04-03T00:44:00.289Z,43.83
2019-04-03T00:46:30.367Z,43.67
2019-04-03T00:49:00.389Z,47.50
2019-04-03T00:51:30.425Z,41.20
2019-04-03T00:54:00.497Z,49.93
2019-04-03T00:56:30.537Z,54.13
2019-04-03T00:59:00.605Z,45.48
2019-04-03T01:01:30.676Z,44.60
2019-04-03T01:04:00.729Z,43.43
2019-04-03T01:06:30.845Z,43.03
2019-04-03T01:09:00.849Z,41.70
2019-04-03T01:11:31.141Z,55.37
2019-04-03T01:14:01.561Z,51.30
2019-04-03T01:16:33.017Z,42.73
2019-04-03T01:19:05.754Z,40.07
2019-04-03T01:21:37.245Z,39.77
2019-04-03T01:24:08.372Z,41.30
2019-04-03T01:26:40.181Z,39.23
2019-04-03T01:29:10.623Z,39.73
2019-04-03T01:31:42.818Z,39.37
2019-04-03T01:34:15.640Z,38.77
2019-04-03T01:36:46.581Z,45.63
2019-04-03T01:39:19.140Z,40.57
2019-04-03T01:41:51.087Z,37.87
2019-04-03T01:44:22.562Z,45.93
2019-04-03T01:46:52.998Z,37.10
2019-04-03T01:49:23.049Z,34.40
2019-04-03T01:51:53.082Z,35.93
2019-04-03T01:54:23.081Z,33.37
2019-04-03T01:56:53.176Z,32.07
2019-04-03T01:59:23.403Z,33.33
2019-04-03T02:01:53.439Z,37.42
2019-04-03T02:04:23.504Z,37.53
2019-04-03T02:06:53.576Z,35.68
2019-04-03T02:09:23.647Z,35.30
2019-04-03T02:11:53.728Z,38.43
2019-04-03T02:14:23.780Z,37.53
2019-04-03T02:16:54.087Z,35.23
2019-04-03T02:19:26.266Z,38.40
2019-04-03T02:21:57.948Z,35.23
2019-04-03T02:24:27.898Z,38.40
2019-04-03T02:26:57.943Z,34.93
2019-04-03T02:29:28.047Z,35.23
2019-04-03T02:31:59.154Z,34.40
2019-04-03T02:34:33.403Z,36.45
2019-04-03T02:37:01.562Z,34.43
2019-04-03T02:39:31.598Z,35.30
2019-04-03T02:42:02.052Z,39.63
2019-04-03T02:44:32.358Z,33.43
2019-04-03T02:47:02.424Z,31.90
2019-04-03T02:49:32.494Z,35.80
2019-04-03T02:52:02.527Z,37.20
2019-04-03T02:54:35.042Z,32.97
2019-04-03T02:57:04.325Z,31.37
2019-04-03T02:59:34.346Z,36.15
2019-04-03T03:02:04.367Z,37.40
2019-04-03T03:04:34.863Z,35.23
2019-04-03T03:07:05.540Z,32.50
2019-04-03T03:09:35.970Z,34.90
2019-04-03T03:12:06.359Z,32.37
2019-04-03T03:14:39.346Z,33.80
2019-04-03T03:17:08.960Z,31.27
2019-04-03T03:19:39.191Z,33.98
2019-04-03T03:22:09.395Z,34.13
2019-04-03T03:24:39.703Z,30.27
2019-04-03T03:27:10.329Z,36.63
2019-04-03T03:29:40.613Z,30.00
2019-04-03T03:32:18.695Z,30.97
2019-04-03T03:34:53.193Z,33.67
2019-04-03T03:37:15.684Z,31.23
2019-04-03T03:39:45.945Z,33.23
2019-04-03T03:42:16.332Z,35.60
2019-04-03T03:44:47.006Z,35.50
2019-04-03T03:47:17.652Z,30.50
2019-04-03T03:49:49.697Z,35.48
2019-04-03T03:52:19.526Z,39.47
2019-04-03T03:54:51.555Z,33.63
2019-04-03T03:57:21.789Z,34.40
2019-04-03T03:59:52.909Z,31.60
2019-04-03T04:02:23.642Z,36.20
2019-04-03T04:04:53.816Z,32.93
2019-04-03T04:07:24.039Z,34.80
2019-04-03T04:09:54.179Z,31.87
2019-04-03T04:12:24.521Z,33.97
2019-04-03T04:14:56.526Z,32.13
2019-04-03T04:17:26.728Z,33.60
2019-04-03T04:19:56.839Z,34.27
2019-04-03T04:22:28.166Z,33.30
2019-04-03T04:24:59.580Z,32.30
2019-04-03T04:27:33.097Z,34.23
2019-04-03T04:30:02.293Z,29.55
2019-04-03T04:32:32.438Z,32.00
2019-04-03T04:35:02.470Z,35.63
2019-04-03T04:37:32.671Z,33.57
2019-04-03T04:40:02.657Z,36.40
2019-04-03T04:42:34.496Z,35.33
2019-04-03T04:45:04.780Z,32.80
2019-04-03T04:47:34.779Z,33.00
2019-04-03T04:50:05.010Z,35.63
2019-04-03T04:52:35.047Z,34.70
2019-04-03T04:55:05.323Z,31.27
2019-04-03T04:57:35.335Z,34.43
2019-04-03T05:00:06.556Z,33.13
2019-04-03T05:02:36.627Z,35.10
2019-04-03T05:05:09.001Z,36.50
2019-04-03T05:07:39.001Z,33.97
2019-04-03T05:10:09.554Z,34.43
2019-04-03T05:12:42.613Z,41.83
2019-04-03T05:15:11.452Z,32.78
2019-04-03T05:17:41.666Z,34.00
2019-04-03T05:20:11.806Z,36.42
2019-04-03T05:22:41.854Z,35.77
2019-04-03T05:25:12.125Z,33.83
2019-04-03T05:27:42.202Z,38.37
2019-04-03T05:30:12.503Z,33.30
2019-04-03T05:32:45.449Z,30.23
2019-04-03T05:35:15.575Z,31.43
2019-04-03T05:37:45.795Z,37.20
2019-04-03T05:40:15.761Z,34.00
2019-04-03T05:42:45.805Z,34.30
2019-04-03T05:45:15.851Z,34.90
2019-04-03T05:47:45.868Z,32.50
2019-04-03T05:50:16.891Z,41.77
2019-04-03T05:52:46.996Z,36.63
2019-04-03T05:55:17.219Z,59.05
2019-04-03T05:57:47.205Z,37.37
2019-04-03T06:00:17.254Z,45.55
2019-04-03T06:02:47.412Z,39.13
2019-04-03T06:05:19.285Z,40.23
2019-04-03T06:07:49.814Z,35.83
2019-04-03T06:10:20.358Z,46.13
2019-04-03T06:12:50.411Z,42.90
2019-04-03T06:15:22.048Z,35.07
2019-04-03T06:17:54.259Z,37.93
2019-04-03T06:20:24.206Z,36.23
2019-04-03T06:22:54.184Z,41.77
2019-04-03T06:25:24.272Z,37.30
2019-04-03T06:27:54.296Z,35.90
2019-04-03T06:30:25.747Z,51.93
2019-04-03T06:32:56.415Z,53.97
2019-04-03T06:35:26.701Z,71.93
2019-04-03T06:37:56.914Z,61.93
2019-04-03T06:40:26.867Z,41.47
2019-04-03T06:42:56.914Z,41.43
2019-04-03T06:45:27.164Z,55.33
2019-04-03T06:47:57.133Z,40.83
2019-04-03T06:50:27.229Z,44.03
2019-04-03T06:52:58.107Z,41.60
2019-04-03T06:55:28.152Z,49.40
2019-04-03T06:57:58.142Z,40.80
2019-04-03T07:00:28.195Z,36.00
2019-04-03T07:02:58.255Z,37.93
2019-04-03T07:05:28.435Z,40.00
2019-04-03T07:08:00.661Z,43.50
2019-04-03T07:10:30.598Z,39.73
2019-04-03T07:13:00.835Z,38.87
2019-04-03T07:15:30.878Z,43.13
2019-04-03T07:18:01.800Z,39.27
2019-04-03T07:20:33.007Z,44.10
2019-04-03T07:23:03.195Z,44.87
2019-04-03T07:25:34.021Z,43.90
2019-04-03T07:28:04.722Z,47.33
2019-04-03T07:30:34.817Z,41.30
2019-04-03T07:33:05.796Z,45.70
2019-04-03T07:35:39.135Z,44.03
2019-04-03T07:38:08.402Z,41.80
2019-04-03T07:40:38.631Z,42.07
2019-04-03T07:43:09.022Z,43.50
2019-04-03T07:45:39.077Z,44.47
2019-04-03T07:48:09.130Z,42.93
2019-04-03T07:50:39.780Z,42.93
2019-04-03T07:53:10.978Z,44.57
2019-04-03T07:55:43.718Z,47.62
2019-04-03T07:58:13.057Z,47.37
2019-04-03T08:00:43.082Z,47.60
2019-04-03T08:03:13.224Z,47.87
2019-04-03T08:05:43.353Z,45.63
2019-04-03T08:08:13.471Z,46.03
2019-04-03T08:10:43.717Z,45.97
2019-04-03T08:13:13.843Z,45.20
2019-04-03T08:15:44.494Z,80.73
2019-04-03T08:18:15.407Z,75.07
2019-04-03T08:20:45.560Z,52.63
2019-04-03T08:23:16.565Z,46.30
2019-04-03T08:25:48.436Z,46.85
2019-04-03T08:28:19.344Z,53.23
2019-04-03T08:30:49.358Z,51.03
2019-04-03T08:33:25.487Z,49.33
2019-04-03T08:35:51.156Z,49.70
2019-04-03T08:38:21.612Z,52.40
2019-04-03T08:40:53.338Z,52.30
2019-04-03T08:43:23.705Z,51.93
2019-04-03T08:45:53.944Z,51.60
2019-04-03T08:48:24.216Z,52.87
2019-04-03T08:50:54.337Z,56.20
2019-04-03T08:53:24.539Z,55.30
2019-04-03T08:55:56.574Z,56.90
2019-04-03T08:58:26.784Z,59.37
2019-04-03T09:01:04.146Z,63.00
2019-04-03T09:03:36.024Z,63.53
2019-04-03T09:06:07.980Z,63.73
2019-04-03T09:08:38.205Z,57.98
2019-04-03T09:11:09.935Z,62.03
2019-04-03T09:13:40.393Z,59.50
2019-04-03T09:16:11.028Z,62.13
2019-04-03T09:18:41.337Z,62.15
2019-04-03T09:21:14.284Z,66.60
2019-04-03T09:23:43.295Z,62.45
2019-04-03T09:26:13.440Z,61.90
2019-04-03T09:28:43.826Z,62.27
2019-04-03T09:31:13.925Z,60.40
2019-04-03T09:33:44.022Z,67.43
2019-04-03T09:36:14.134Z,62.77
2019-04-03T09:38:44.304Z,59.87
2019-04-03T09:41:14.474Z,61.80
2019-04-03T09:43:44.581Z,59.93
2019-04-03T09:46:14.846Z,64.00
2019-04-03T09:48:45.314Z,62.87
2019-04-03T09:51:17.610Z,62.45
2019-04-03T09:53:47.518Z,62.58
2019-04-03T09:56:17.683Z,64.95
2019-04-03T09:58:48.095Z,61.90
2019-04-03T10:01:18.996Z,64.67
2019-04-03T10:03:51.999Z,61.17
2019-04-03T10:06:22.214Z,61.47
2019-04-03T10:08:52.472Z,62.40
2019-04-03T10:11:22.513Z,62.37
2019-04-03T10:13:52.576Z,61.50
2019-04-03T10:16:23.032Z,61.43
2019-04-03T10:18:53.585Z,64.77
2019-04-03T10:21:23.698Z,62.30
2019-04-03T10:23:54.119Z,64.70
2019-04-03T10:26:24.386Z,61.60
2019-04-03T10:28:54.860Z,66.07
2019-04-03T10:31:25.010Z,64.40
2019-04-03T10:33:55.274Z,63.80
2019-04-03T10:36:25.333Z,64.07
2019-04-03T10:38:55.393Z,67.70
2019-04-03T10:41:27.706Z,66.23
2019-04-03T10:43:58.242Z,68.57
2019-04-03T10:46:29.705Z,65.77
2019-04-03T10:49:00.881Z,66.80
2019-04-03T10:51:31.872Z,65.45
2019-04-03T10:54:02.067Z,67.40
2019-04-03T10:56:32.730Z,65.00
2019-04-03T10:59:10.282Z,67.30
2019-04-03T11:01:34.807Z,66.47
2019-04-03T11:04:06.039Z,68.30
2019-04-03T11:06:37.515Z,68.87
2019-04-03T11:09:10.366Z,65.60
2019-04-03T11:11:42.970Z,66.77
2019-04-03T11:14:12.386Z,64.80
2019-04-03T11:16:45.980Z,67.07
2019-04-03T11:19:15.303Z,66.60
2019-04-03T11:21:45.568Z,72.90
2019-04-03T11:24:15.607Z,66.47
2019-04-03T11:26:46.216Z,65.30
2019-04-03T11:29:16.357Z,65.17
2019-04-03T11:31:46.658Z,67.23
2019-04-03T11:34:18.313Z,69.10
2019-04-03T11:36:48.768Z,64.67
2019-04-03T11:39:19.039Z,65.73
2019-04-03T11:41:49.112Z,67.13
2019-04-03T11:44:19.302Z,80.10
2019-04-03T11:46:49.321Z,70.15
2019-04-03T11:49:20.019Z,67.67
2019-04-03T11:51:51.087Z,65.95
2019-04-03T11:54:23.470Z,65.17
2019-04-03T11:56:56.268Z,65.33
2019-04-03T11:59:25.459Z,66.50
2019-04-03T12:01:55.579Z,65.90
2019-04-03T12:04:25.826Z,67.83
2019-04-03T12:06:55.773Z,67.00
2019-04-03T12:09:25.968Z,67.40
2019-04-03T12:11:56.002Z,68.40
2019-04-03T12:14:26.386Z,66.70
2019-04-03T12:16:58.319Z,69.53
2019-04-03T12:19:28.579Z,70.90
2019-04-03T12:21:58.740Z,72.27
2019-04-03T12:24:28.838Z,75.93
2019-04-03T12:27:01.545Z,73.93
2019-04-03T12:29:32.076Z,69.77
2019-04-03T12:32:04.027Z,66.47
2019-04-03T12:34:36.739Z,70.73
2019-04-03T12:37:07.226Z,75.43
2019-04-03T12:39:37.652Z,72.17
2019-04-03T12:42:08.736Z,68.60
2019-04-03T12:44:39.907Z,69.60
2019-04-03T12:47:12.445Z,66.50
2019-04-03T12:49:42.392Z,67.07
2019-04-03T12:52:12.547Z,66.77
2019-04-03T12:54:42.649Z,66.50
2019-04-03T12:57:12.693Z,68.33
2019-04-03T12:59:42.844Z,66.70
2019-04-03T13:02:12.903Z,70.60
2019-04-03T13:04:43.069Z,67.30
2019-04-03T13:07:14.484Z,69.87
2019-04-03T13:09:44.664Z,70.87
2019-04-03T13:12:15.171Z,74.67
2019-04-03T13:14:45.345Z,74.30
2019-04-03T13:17:15.469Z,72.57
2019-04-03T13:19:45.613Z,74.10
2019-04-03T13:22:18.028Z,70.37
2019-04-03T13:24:50.153Z,69.20
2019-04-03T13:27:20.917Z,73.80
2019-04-03T13:29:51.478Z,71.97
2019-04-03T13:32:23.071Z,73.10
2019-04-03T13:34:53.230Z,75.17
2019-04-03T13:37:23.897Z,73.37
2019-04-03T13:39:55.312Z,74.55
2019-04-03T13:42:25.394Z,73.22
2019-04-03T13:44:56.502Z,77.40
2019-04-03T13:47:27.475Z,83.90
2019-04-03T13:49:57.551Z,75.73
2019-04-03T13:52:39.232Z,73.13
2019-04-03T13:54:59.391Z,72.43
2019-04-03T13:57:29.518Z,72.77
2019-04-03T14:00:01.654Z,79.53
2019-04-03T14:02:31.347Z,73.53
2019-04-03T14:05:01.841Z,72.85
2019-04-03T14:07:32.228Z,74.60
2019-04-03T14:10:02.284Z,72.77
2019-04-03T14:12:32.352Z,74.00
2019-04-03T14:15:04.356Z,77.05
2019-04-03T14:17:36.297Z,78.60
2019-04-03T14:20:08.189Z,76.37
2019-04-03T14:22:38.374Z,77.63
2019-04-03T14:25:19.815Z,76.60
2019-04-03T14:27:40.623Z,76.10
2019-04-03T14:30:12.177Z,78.63
2019-04-03T14:32:44.989Z,80.27
2019-04-03T14:35:42.000Z,80.57
2019-04-03T14:37:46.619Z,85.23
2019-04-03T14:40:16.935Z,78.17
2019-04-03T14:42:46.996Z,83.20
2019-04-03T14:45:17.871Z,84.13
2019-04-03T14:47:47.997Z,80.07
2019-04-03T14:50:18.121Z,83.93
2019-04-03T14:52:49.509Z,79.70
2019-04-03T14:55:22.641Z,102.78
2019-04-03T14:57:55.042Z,83.10
2019-04-03T15:00:28.679Z,83.93
2019-04-03T15:02:57.524Z,77.90
2019-04-03T15:05:27.739Z,77.37
2019-04-03T15:07:57.812Z,80.77
2019-04-03T15:10:30.740Z,74.30
2019-04-03T15:13:00.523Z,78.47
2019-04-03T15:15:30.648Z,76.07
2019-04-03T15:18:01.090Z,74.97
2019-04-03T15:20:33.455Z,75.27
2019-04-03T15:23:05.241Z,75.25
2019-04-03T15:25:35.248Z,72.90
2019-04-03T15:28:06.044Z,79.37
2019-04-03T15:30:36.367Z,71.57
2019-04-03T15:33:06.919Z,68.60
2019-04-03T15:35:37.062Z,67.87
2019-04-03T15:38:07.559Z,67.83
2019-04-03T15:40:37.604Z,66.55
2019-04-03T15:43:10.370Z,66.00
2019-04-03T15:45:40.329Z,66.47
2019-04-03T15:48:10.473Z,65.07
2019-04-03T15:50:41.000Z,68.03
2019-04-03T15:53:12.542Z,63.43
2019-04-03T15:55:42.645Z,65.23
2019-04-03T15:58:12.739Z,63.53
2019-04-03T16:00:43.458Z,63.37
2019-04-03T16:03:16.356Z,63.40
2019-04-03T16:05:46.449Z,63.20
2019-04-03T16:08:16.767Z,61.60
2019-04-03T16:10:47.099Z,64.37
2019-04-03T16:13:17.585Z,62.30
2019-04-03T16:15:47.996Z,62.27
2019-04-03T16:18:20.098Z,61.87
2019-04-03T16:20:50.829Z,60.03
2019-04-03T16:23:21.830Z,58.40
2019-04-03T16:25:54.454Z,57.70
2019-04-03T16:28:24.746Z,59.07
2019-04-03T16:30:54.931Z,57.97
2019-04-03T16:33:25.579Z,56.70
2019-04-03T16:35:56.286Z,61.50
2019-04-03T16:38:28.532Z,57.37
2019-04-03T16:40:58.586Z,54.37
2019-04-03T16:43:29.854Z,55.90
2019-04-03T16:46:00.241Z,55.40
2019-04-03T16:48:31.191Z,53.08
2019-04-03T16:51:01.611Z,53.90
2019-04-03T16:53:32.570Z,52.98
2019-04-03T16:56:05.883Z,52.33
2019-04-03T16:58:35.217Z,53.90
2019-04-03T17:01:05.692Z,52.20
2019-04-03T17:03:36.453Z,52.67
2019-04-03T17:06:07.167Z,51.68
2019-04-03T17:08:37.468Z,54.10
2019-04-03T17:11:07.932Z,51.23
2019-04-03T17:13:38.563Z,55.63
2019-04-03T17:16:08.816Z,50.88
2019-04-03T17:18:39.343Z,52.40
2019-04-03T17:21:09.816Z,52.60
2019-04-03T17:23:39.978Z,49.60
2019-04-03T17:26:10.797Z,49.90
2019-04-03T17:28:41.763Z,50.13
2019-04-03T17:31:12.185Z,48.77
2019-04-03T17:33:43.734Z,52.00
2019-04-03T17:36:14.137Z,49.90
2019-04-03T17:38:47.185Z,50.63
2019-04-03T17:41:17.342Z,49.00
2019-04-03T17:43:47.552Z,48.50
2019-04-03T17:46:18.245Z,49.20
2019-04-03T17:48:49.985Z,47.77
2019-04-03T17:51:21.309Z,49.40
2019-04-03T17:53:51.741Z,51.30
2019-04-03T17:56:22.051Z,48.97
2019-04-03T17:58:52.440Z,49.03
2019-04-03T18:01:23.413Z,46.98
2019-04-03T18:03:56.524Z,49.33
2019-04-03T18:06:27.936Z,48.03
2019-04-03T18:08:58.722Z,46.70
2019-04-03T18:11:29.404Z,47.23
2019-04-03T18:13:59.732Z,46.77
2019-04-03T18:16:30.312Z,53.00
2019-04-03T18:19:00.750Z,45.70
2019-04-03T18:21:31.956Z,45.23
2019-04-03T18:24:02.139Z,45.98
2019-04-03T18:26:32.548Z,46.37
2019-04-03T18:29:03.036Z,44.50
2019-04-03T18:31:33.470Z,44.27
2019-04-03T18:34:03.935Z,46.17
2019-04-03T18:36:34.333Z,47.00
2019-04-03T18:39:07.811Z,43.90
2019-04-03T18:41:39.714Z,45.37
2019-04-03T18:44:21.638Z,44.30
2019-04-03T18:46:42.218Z,47.30
2019-04-03T18:49:12.697Z,46.53
2019-04-03T18:51:43.155Z,43.48
2019-04-03T18:54:13.768Z,46.40
2019-04-03T18:56:45.590Z,43.50
2019-04-03T18:59:16.021Z,45.30
2019-04-03T19:01:46.150Z,48.00
2019-04-03T19:04:16.506Z,42.27
2019-04-03T19:06:46.818Z,44.20
2019-04-03T19:09:17.210Z,43.70
2019-04-03T19:11:47.676Z,43.20
2019-04-03T19:14:27.117Z,44.10
2019-04-03T19:16:52.504Z,43.00
2019-04-03T19:19:23.618Z,44.93
2019-04-03T19:21:54.619Z,41.90
2019-04-03T19:24:25.784Z,42.20
2019-04-03T19:26:56.228Z,41.97
2019-04-03T19:29:26.414Z,41.70
2019-04-03T19:31:56.768Z,41.27
2019-04-03T19:34:27.043Z,41.87
2019-04-03T19:36:57.343Z,41.17
2019-04-03T19:39:28.468Z,43.23
2019-04-03T19:41:59.346Z,41.30
2019-04-03T19:44:29.528Z,39.90
2019-04-03T19:47:02.434Z,42.83
2019-04-03T19:49:32.710Z,42.90
2019-04-03T19:52:03.042Z,43.10
2019-04-03T19:54:33.264Z,43.20
2019-04-03T19:57:04.721Z,44.00
2019-04-03T19:59:34.903Z,40.07
2019-04-03T20:02:05.376Z,40.07
2019-04-03T20:04:35.834Z,40.40
2019-04-03T20:07:06.072Z,39.08
2019-04-03T20:09:36.354Z,39.63
2019-04-03T20:12:18.470Z,40.15
2019-04-03T20:14:58.180Z,39.30
2019-04-03T20:17:20.444Z,43.83
2019-04-03T20:19:50.603Z,41.00
2019-04-03T20:22:20.733Z,38.67
2019-04-03T20:24:59.805Z,39.47
2019-04-03T20:27:23.489Z,38.85
2019-04-03T20:29:54.712Z,38.87
2019-04-03T20:32:24.929Z,38.47
2019-04-03T20:34:55.132Z,39.03
2019-04-03T20:37:26.196Z,39.70
2019-04-03T20:39:59.584Z,40.10
2019-04-03T20:42:29.061Z,39.60
2019-04-03T20:44:59.151Z,38.40
2019-04-03T20:47:29.314Z,38.30
2019-04-03T20:49:59.585Z,41.33
2019-04-03T20:52:30.696Z,37.03
2019-04-03T20:55:01.779Z,41.07
2019-04-03T20:57:33.359Z,48.20
2019-04-03T21:00:03.719Z,41.80
2019-04-03T21:02:34.786Z,40.60
2019-04-03T21:05:07.594Z,38.33
2019-04-03T21:07:36.845Z,39.53
2019-04-03T21:10:07.661Z,37.93
2019-04-03T21:12:39.274Z,41.13
2019-04-03T21:15:09.579Z,38.73
2019-04-03T21:17:41.213Z,38.92
2019-04-03T21:20:11.404Z,37.00
2019-04-03T21:22:41.432Z,35.00
2019-04-03T21:25:11.599Z,37.38
2019-04-03T21:27:41.689Z,36.43
2019-04-03T21:30:12.043Z,33.60
2019-04-03T21:32:42.141Z,32.15
2019-04-03T21:35:12.251Z,32.25
2019-04-03T21:37:42.353Z,31.60
2019-04-03T21:40:14.739Z,33.17
2019-04-03T21:42:44.115Z,30.37
2019-04-03T21:45:14.192Z,31.90
2019-04-03T21:47:44.256Z,30.00
2019-04-03T21:50:14.399Z,30.15
2019-04-03T21:52:44.419Z,29.30
2019-04-03T21:55:14.568Z,28.07
2019-04-03T21:57:44.662Z,28.00
2019-04-03T22:00:18.917Z,27.90
2019-04-03T22:02:49.837Z,27.80
2019-04-03T22:05:20.103Z,26.77
2019-04-03T22:07:50.432Z,26.50
2019-04-03T22:10:20.505Z,25.97
2019-04-03T22:12:50.565Z,26.90
2019-04-03T22:15:20.671Z,25.10
2019-04-03T22:17:52.355Z,24.17
2019-04-03T22:20:22.739Z,26.10
2019-04-03T22:22:52.799Z,24.33
2019-04-03T22:25:23.041Z,26.00
2019-04-03T22:27:53.198Z,22.67
2019-04-03T22:30:23.374Z,23.20
2019-04-03T22:32:53.997Z,23.20
2019-04-03T22:35:27.898Z,22.90
2019-04-03T22:37:57.325Z,26.53
2019-04-03T22:40:27.548Z,23.30
2019-04-03T22:42:57.601Z,21.27
2019-04-03T22:45:27.677Z,22.33
2019-04-03T22:47:57.738Z,22.03
2019-04-03T22:50:27.839Z,21.47
2019-04-03T22:52:57.908Z,22.00
2019-04-03T22:55:28.065Z,22.27
2019-04-03T22:57:58.075Z,20.73
2019-04-03T23:00:28.116Z,22.33
2019-04-03T23:02:58.246Z,20.70
2019-04-03T23:05:28.246Z,19.60
2019-04-03T23:07:58.479Z,21.00
2019-04-03T23:10:34.181Z,20.27
2019-04-03T23:13:05.272Z,21.07
2019-04-03T23:15:35.365Z,19.13
2019-04-03T23:18:05.615Z,19.97
2019-04-03T23:20:35.661Z,19.50
2019-04-03T23:23:05.805Z,21.00
2019-04-03T23:25:35.974Z,19.33
2019-04-03T23:28:06.009Z,19.90
2019-04-03T23:30:36.129Z,19.50
2019-04-03T23:33:06.246Z,19.03
2019-04-03T23:35:36.339Z,18.40
2019-04-03T23:38:06.424Z,18.23
2019-04-03T23:40:36.488Z,17.60
2019-04-03T23:43:09.468Z,20.33
2019-04-03T23:45:39.614Z,18.35
2019-04-03T23:48:09.732Z,18.32
2019-04-03T23:50:39.875Z,17.23
2019-04-03T23:53:09.972Z,17.63
2019-04-03T23:55:40.273Z,16.60
2019-04-03T23:58:10.912Z,18.48
